createdAt,value
2022-11-03T00:00:57.398Z,101402.56
2022-11-03T00:06:07.995Z,101391.31
2022-11-03T00:11:12.992Z,101371.97
2022-11-03T00:16:15.927Z,101357.78
2022-11-03T00:21:20.603Z,101350.66
2022-11-03T00:26:26.615Z,101351.75
2022-11-03T00:31:31.460Z,101332.28
2022-11-03T00:36:37.265Z,101338.59
2022-11-03T00:41:40.954Z,101333.31
2022-11-03T00:46:44.183Z,101323.75
2022-11-03T00:51:48.507Z,101323.72
2022-11-03T00:56:51.599Z,101328.06
2022-11-03T01:01:54.744Z,101315.56
2022-11-03T01:07:00.949Z,101304.25
2022-11-03T01:12:06.170Z,101298.06
2022-11-03T01:17:10.799Z,101297.94
2022-11-03T01:22:16.383Z,101284.78
2022-11-03T01:27:22.538Z,101279.59
2022-11-03T01:32:25.594Z,101275.22
2022-11-03T01:37:30.057Z,101264.69
2022-11-03T01:42:33.200Z,101249.56
2022-11-03T01:47:37.645Z,101249.69
2022-11-03T01:52:45.975Z,101247.97
2022-11-03T01:57:54.729Z,101241.78
2022-11-03T02:08:16.485Z,101222.59
2022-11-03T02:13:21.470Z,101221.84
2022-11-03T02:18:28.132Z,101223.59
2022-11-03T02:23:39.759Z,101216.53
2022-11-03T02:28:44.966Z,101209.59
2022-11-03T02:33:55.174Z,101193.81
2022-11-03T02:39:02.823Z,101192.84
2022-11-03T02:44:13.563Z,101172.63
2022-11-03T02:49:17.011Z,101144.63
2022-11-03T02:54:25.271Z,101150.13
2022-11-03T02:59:35.870Z,101142.34
2022-11-03T03:04:42.049Z,101137.25
2022-11-03T03:09:51.814Z,101122.44
2022-11-03T03:14:59.866Z,101121.69
2022-11-03T03:20:06.625Z,101124.31
2022-11-03T03:25:16.536Z,101113.09
2022-11-03T03:30:21.983Z,101113.09
2022-11-03T03:35:30.883Z,101106.13
2022-11-03T03:40:39.262Z,101097.50
2022-11-03T03:45:46.463Z,101116.88
2022-11-03T03:50:50.706Z,101102.88
2022-11-03T03:55:54.058Z,101101.09
2022-11-03T04:00:59.067Z,101099.41
2022-11-03T04:06:02.762Z,101096.00
2022-11-03T04:11:23.812Z,101088.06
2022-11-03T04:16:42.258Z,101079.25
2022-11-03T04:22:03.190Z,101072.16
2022-11-03T04:27:28.615Z,101060.66
2022-11-03T04:32:33.120Z,101047.50
2022-11-03T04:37:36.621Z,101046.66
2022-11-03T04:42:39.833Z,101043.25
2022-11-03T04:47:45.380Z,101033.63
2022-11-03T04:52:48.784Z,101031.09
2022-11-03T04:57:58.256Z,101013.72
2022-11-03T05:03:02.932Z,101006.84
2022-11-03T05:08:10.521Z,101005.97
2022-11-03T05:13:20.578Z,100996.34
2022-11-03T05:18:28.372Z,100984.16
2022-11-03T05:23:37.703Z,100987.72
2022-11-03T05:28:43.561Z,100973.69
2022-11-03T05:33:50.091Z,100959.81
2022-11-03T05:38:57.106Z,100967.03
2022-11-03T05:44:04.323Z,100960.91
2022-11-03T05:49:11.377Z,100954.75
2022-11-03T05:54:22.341Z,100940.00
2022-11-03T05:59:29.546Z,100935.56
2022-11-03T06:04:37.823Z,100938.28
2022-11-03T06:09:41.193Z,100935.75
2022-11-03T06:14:44.247Z,100914.78
2022-11-03T06:19:50.483Z,100918.38
2022-11-03T06:24:57.265Z,100910.47
2022-11-03T06:30:03.360Z,100912.22
2022-11-03T06:35:13.140Z,100895.63
2022-11-03T06:40:37.049Z,100894.91
2022-11-03T06:45:45.381Z,100893.22
2022-11-03T06:50:50.295Z,100894.22
2022-11-03T06:55:54.182Z,100891.75
2022-11-03T07:01:03.284Z,100890.94
2022-11-03T07:06:16.373Z,100891.13
2022-11-03T07:11:21.779Z,100878.88
2022-11-03T07:16:29.938Z,100886.03
2022-11-03T07:21:38.243Z,100885.34
2022-11-03T07:26:41.524Z,100873.19
2022-11-03T07:31:44.577Z,100885.63
2022-11-03T07:36:55.960Z,100880.53
2022-11-03T07:41:59.327Z,100877.19
2022-11-03T07:47:12.508Z,100882.69
2022-11-03T07:52:20.922Z,100884.59
2022-11-03T07:57:27.590Z,100874.13
2022-11-03T08:02:34.658Z,100870.84
2022-11-03T08:07:39.318Z,100862.19
2022-11-03T08:12:42.949Z,100849.19
2022-11-03T08:17:46.379Z,100836.91
2022-11-03T08:23:19.719Z,100813.25
2022-11-03T08:28:16.453Z,100809.94
2022-11-03T08:33:19.552Z,100804.03
2022-11-03T08:38:27.592Z,100789.25
2022-11-03T08:43:30.918Z,100780.75
2022-11-03T08:48:34.280Z,100769.50
2022-11-03T08:53:38.772Z,100752.94
2022-11-03T08:58:42.025Z,100730.25
2022-11-03T09:03:45.425Z,100710.22
2022-11-03T09:14:12.820Z,100685.06
2022-11-03T09:19:16.424Z,100673.72
2022-11-03T09:24:20.963Z,100667.84
2022-11-03T09:29:24.122Z,100645.97
2022-11-03T09:34:27.268Z,100642.59
2022-11-03T09:39:31.736Z,100632.25
2022-11-03T09:44:36.028Z,100623.56
2022-11-03T09:49:39.161Z,100611.22
2022-11-03T09:54:43.950Z,100607.66
2022-11-03T09:59:48.603Z,100611.09
2022-11-03T10:04:54.073Z,100599.72
2022-11-03T10:10:00.757Z,100589.16
2022-11-03T10:15:03.940Z,100568.00
2022-11-03T10:20:13.126Z,100562.72
2022-11-03T10:25:36.141Z,100554.75
2022-11-03T10:31:10.041Z,100536.28
2022-11-03T10:36:25.524Z,100539.88
2022-11-03T10:41:31.447Z,100527.69
2022-11-03T10:46:51.422Z,100522.53
2022-11-03T10:51:59.294Z,100507.69
2022-11-03T10:57:04.010Z,100509.47
2022-11-03T11:02:17.157Z,100501.63
2022-11-03T11:07:27.193Z,100489.31
2022-11-03T11:12:31.702Z,100486.75
2022-11-03T11:17:51.151Z,100475.38
2022-11-03T11:22:54.231Z,100469.19
2022-11-03T11:27:59.407Z,100468.38
2022-11-03T11:33:13.808Z,100442.91
2022-11-03T11:39:05.811Z,100423.56
2022-11-03T11:44:57.196Z,100418.31
2022-11-03T11:50:33.042Z,100401.59
2022-11-03T11:55:55.645Z,100379.72
2022-11-03T12:01:01.599Z,100354.16
2022-11-03T12:06:06.880Z,100347.97
2022-11-03T12:11:13.011Z,100345.34
2022-11-03T12:16:36.016Z,100329.44
2022-11-03T12:21:52.026Z,100321.59
2022-11-03T12:26:55.141Z,100307.59
2022-11-03T12:31:58.153Z,100291.72
2022-11-03T12:37:03.418Z,100294.38
2022-11-03T12:42:07.419Z,100289.06
2022-11-03T12:47:10.418Z,100267.84
2022-11-03T12:52:15.378Z,100261.63
2022-11-03T12:57:18.465Z,100243.94
2022-11-03T13:02:21.806Z,100236.88
2022-11-03T13:07:31.830Z,100232.44
2022-11-03T13:12:41.394Z,100213.00
2022-11-03T13:18:12.742Z,100200.63
2022-11-03T13:23:09.113Z,100194.44
2022-11-03T13:28:12.491Z,100177.63
2022-11-03T13:33:15.687Z,100168.81
2022-11-03T13:38:21.564Z,100169.72
2022-11-03T13:43:25.015Z,100159.09
2022-11-03T13:59:31.329Z,100135.22
2022-11-03T14:04:42.025Z,100126.41
2022-11-03T14:09:47.751Z,100125.50
2022-11-03T14:14:50.807Z,100108.69
2022-11-03T14:19:59.162Z,100098.06
2022-11-03T14:25:09.057Z,100102.47
2022-11-03T14:30:13.403Z,100116.59
2022-11-03T14:35:16.643Z,100104.22
2022-11-03T14:40:38.464Z,100091.84
2022-11-03T14:45:42.776Z,100079.47
2022-11-03T14:50:47.444Z,100069.72
2022-11-03T14:55:52.396Z,100055.59
2022-11-03T15:00:55.819Z,100038.81
2022-11-03T15:05:59.141Z,100029.97
2022-11-03T15:11:05.782Z,100032.63
2022-11-03T15:16:09.077Z,100026.41
2022-11-03T15:21:12.803Z,100020.22
2022-11-03T15:26:18.274Z,100008.69
2022-11-03T15:31:21.643Z,99996.28
2022-11-03T15:36:24.957Z,99989.22
2022-11-03T15:41:29.626Z,99990.06
2022-11-03T15:46:33.050Z,99974.13
2022-11-03T15:51:36.336Z,99970.56
2022-11-03T15:56:41.077Z,99950.25
2022-11-03T16:01:44.225Z,99955.50
2022-11-03T16:07:06.858Z,99940.50
2022-11-03T16:12:11.854Z,99935.16
2022-11-03T16:17:14.889Z,99937.75
2022-11-03T16:22:18.329Z,99948.22
2022-11-03T16:27:22.891Z,99956.00
2022-11-03T16:32:26.005Z,99960.09
2022-11-03T16:37:29.383Z,99967.84
2022-11-03T16:42:38.426Z,99958.91
2022-11-03T16:47:41.574Z,99949.13
2022-11-03T16:52:44.932Z,99931.47
2022-11-03T16:57:49.424Z,99932.25
2022-11-03T17:02:52.682Z,99931.31
2022-11-03T17:07:56.060Z,99930.38
2022-11-03T17:13:00.495Z,99940.03
2022-11-03T17:18:03.439Z,99939.03
2022-11-03T17:23:06.412Z,99942.41
2022-11-03T17:28:11.697Z,99937.06
2022-11-03T17:33:19.707Z,99919.41
2022-11-03T17:38:32.123Z,99911.56
2022-11-03T17:43:40.511Z,99900.88
2022-11-03T17:48:43.579Z,99899.94
2022-11-03T17:53:46.686Z,99900.75
2022-11-03T17:58:54.331Z,99899.88
2022-11-03T18:03:57.408Z,99890.19
2022-11-03T18:09:00.449Z,99891.03
2022-11-03T18:14:04.992Z,99879.59
2022-11-03T18:19:12.199Z,99883.97
2022-11-03T18:24:17.955Z,99883.88
2022-11-03T18:29:22.785Z,99868.91
2022-11-03T18:34:28.597Z,99875.00
2022-11-03T18:39:32.189Z,99873.22
2022-11-03T18:44:37.081Z,99872.28
2022-11-03T18:49:40.227Z,99872.31
2022-11-03T18:54:47.046Z,99866.97
2022-11-03T18:59:52.224Z,99857.31
2022-11-03T19:04:55.548Z,99862.59
2022-11-03T19:09:59.360Z,99845.81
2022-11-03T19:15:03.890Z,99830.03
2022-11-03T19:20:13.141Z,99823.00
2022-11-03T19:25:16.437Z,99819.44
2022-11-03T19:30:21.823Z,99809.78
2022-11-03T19:35:29.971Z,99815.88
2022-11-03T19:40:34.125Z,99815.00
2022-11-03T19:45:40.270Z,99815.88
2022-11-03T19:50:43.919Z,99811.47
2022-11-03T19:55:47.471Z,99818.47
2022-11-03T20:00:52.541Z,99824.63
2022-11-03T20:05:57.897Z,99811.41
2022-11-03T20:11:01.631Z,99815.78
2022-11-03T20:16:12.614Z,99817.63
2022-11-03T20:21:17.884Z,99833.41
2022-11-03T20:26:23.624Z,99826.34
2022-11-03T20:31:29.295Z,99835.09
2022-11-03T20:36:34.068Z,99838.53
2022-11-03T20:41:37.223Z,99842.03
2022-11-03T20:46:41.923Z,99841.06
2022-11-03T20:51:47.328Z,99869.13
2022-11-03T20:56:50.987Z,99880.50
2022-11-03T21:01:55.678Z,99892.78
2022-11-03T21:06:58.922Z,99898.91
2022-11-03T21:12:02.039Z,99875.13
2022-11-03T21:17:31.702Z,99878.50
2022-11-03T21:22:54.135Z,99926.56
2022-11-03T21:27:57.369Z,99956.25
2022-11-03T21:33:01.744Z,99972.75
2022-11-03T21:38:05.369Z,99975.38
2022-11-03T21:43:29.216Z,99966.53
2022-11-03T21:48:53.149Z,99977.88
2022-11-03T21:53:56.101Z,99984.03
2022-11-03T21:58:59.085Z,99976.16
2022-11-03T22:04:03.835Z,99977.94
2022-11-03T22:09:06.905Z,99978.00
2022-11-03T22:14:12.241Z,99979.75
2022-11-03T22:19:35.944Z,99982.41
2022-11-03T22:24:57.116Z,99998.28
2022-11-03T22:30:18.685Z,99995.63
2022-11-03T22:35:42.621Z,99997.44
2022-11-03T22:41:06.279Z,100022.00
2022-11-03T22:46:10.800Z,100031.63
2022-11-03T22:51:17.085Z,100035.91
2022-11-03T22:56:21.224Z,100033.34
2022-11-03T23:01:26.826Z,100032.50
2022-11-03T23:06:35.991Z,100050.03
2022-11-03T23:11:39.687Z,100050.00
2022-11-03T23:16:44.779Z,100064.84
2022-11-03T23:21:51.867Z,100077.97
2022-11-03T23:26:54.806Z,100081.44
2022-11-03T23:31:59.724Z,100078.81
2022-11-03T23:37:04.973Z,100085.88
2022-11-03T23:42:08.520Z,100090.22
2022-11-03T23:47:29.053Z,100092.09
2022-11-03T23:52:33.434Z,100089.34
2022-11-03T23:57:54.153Z,100100.66
